LEVD/VLL METAR and TAF weather

Enter ICAO airport designator
Station Type Date Time Source
LEVD METAR 2020/06/01 17:00 UTC NOAA

LEVD 011700Z AUTO 36003KT 320V090 CAVOK 25/11 Q1015


Station Type Date Time Source
LEVD Decoded METAR 2020/06/01 17:00 UTC NOAA

Valladolid / Villanubla, Spain (LEVD) 41-43N 004-51W 846M
Jun 01, 2020 - 01:00 PM EDT / 2020.06.01 1700 UTC
Wind: from the N (360 degrees) at 3 MPH (3 KT) (direction variable):0
Visibility: greater than 7 mile(s):0
Temperature: 77 F (25 C)
Dew Point: 51 F (11 C)
Relative Humidity: 41%
Pressure (altimeter): 29.97 in. Hg (1015 hPa)
ob: LEVD 011700Z AUTO 36003KT 320V090 CAVOK 25/11 Q1015
cycle: 17

Station Type Date Time Source
LEVD TAF 2020/06/01 12:27 UTC NOAA

TAF LEVD 011100Z 0112/0212 VRB05KT 9999 FEW040 TX28/0114Z TN12/0205Z
TEMPO 0113/0121 FEW040CB PROB40
TEMPO 0114/0120 VRB15G30KT 4000 TSRA SCT040CB PROB30
TEMPO 0114/0120 2000 TSGR SCT030CB

Example: see airport list